Buoy 46762

sailwx.info

Track history (hours):
 
Tides and Currents Weather Stations Pressure Air Temp Water Temp Dewpoint Dewpoint Depression Visibility Wind Speed Wind Dir Waves Ship Positions

Drifting buoy 46762

Last reported at 2015-Jul-03 18:10 UTC. Time now 2015-Jul-03 20:21 UTC.
Position N 54°22' W 152°24'.

Barometer 1015.2 mb
Water temperature 10.8 ° C

Date/timePositionNaut miles runAvg speedWind from/ knotsBaromVisibWave heightAir tempDewpointWater temp
2015-Jul-03 18:10N 54°22' W 152°24'2 1.1 1015.2 10.8
2015-Jul-03 16:10N 54°20' W 152°23'0 0.0 1016.7 10.8
2015-Jul-03 15:10N 54°20' W 152°23'2 1.9 1017.5 10.8
2015-Jul-03 14:10N 54°19' W 152°21'1 1.2 1018.0 10.8
2015-Jul-03 13:10N 54°20' W 152°22'4 0.9 1018.6 10.8
2015-Jul-03 08:10N 54°16' W 152°17'2 0.9 1021.6 11.0
2015-Jul-03 06:10N 54°17' W 152°15'1 0.7 1022.3 11.4
2015-Jul-03 04:10N 54°17' W 152°17'1 1.1 1022.9 12.3
2015-Jul-03 03:10N 54°17' W 152°15'1 0.6 1023.1 12.4
2015-Jul-03 02:10N 54°17' W 152°16'0 0.1 1023.4 12.6
2015-Jul-03 01:10N 54°17' W 152°16'1 0.6 1023.7 12.4
2015-Jul-03 00:10N 54°16' W 152°16'1 0.6 1023.8 12.4
2015-Jul-02 23:10N 54°15' W 152°15'1 0.5 1023.9 12.4
2015-Jul-02 22:10N 54°15' W 152°16'1 0.6 1024.0 12.4
2015-Jul-02 20:10N 54°14' W 152°15'1 0.4 1023.8 11.8
2015-Jul-02 18:10N 54°14' W 152°13'1 0.6 1023.5 11.3
2015-Jul-02 16:10N 54°15' W 152°13'0 0.2 1023.1 11.1
2015-Jul-02 15:10N 54°15' W 152°13'1 0.2 1022.7 11.1
2015-Jul-02 11:10N 54°16' W 152°14'0 0.1 1022.4 11.2
2015-Jul-02 08:10N 54°16' W 152°13'1 0.4 1022.3 11.2
2015-Jul-02 05:10N 54°16' W 152°12'2 0.5 1021.2 11.3
2015-Jul-02 01:10N 54°18' W 152°13'2 0.5 1020.8 11.2
2015-Jul-01 21:10N 54°18' W 152°09'2 0.5 1020.0 10.8
2015-Jul-01 17:10N 54°21' W 152°10'1 0.6 1019.2 10.4
2015-Jul-01 15:10N 54°21' W 152°12'1 0.2 1018.6 10.4
2015-Jul-01 12:10N 54°20' W 152°12'1 0.7 1018.3 10.4
2015-Jul-01 10:10N 54°19' W 152°11'1 1.0 1018.7 10.4
2015-Jul-01 09:10N 54°20' W 152°10'2 0.3 1018.6 10.4
2015-Jul-01 04:10N 54°21' W 152°09'1 0.3 1018.2 10.4
2015-Jun-30 23:10N 54°20' W 152°11'0 0.2 1017.9 10.4
2015-Jun-30 22:10N 54°20' W 152°11'1 0.3 1017.7 10.4
2015-Jun-30 18:10N 54°21' W 152°12'0 0.0 1017.1 10.4
2015-Jun-30 12:10N 54°20' W 152°12'0 0.0 1015.2 10.4
2015-Jun-30 11:10N 54°20' W 152°12'0 0.0 1014.8 10.4
2015-Jun-30 09:10N 54°20' W 152°12'1 0.3 1014.3 10.4
2015-Jun-30 04:10N 54°20' W 152°14'1 0.2 1012.1 10.4
2015-Jun-30 00:10N 54°20' W 152°16'1 0.2 1010.7 10.3
2015-Jun-29 16:10N 54°20' W 152°18'1 0.8 1007.3 10.2
2015-Jun-29 15:10N 54°20' W 152°19'1 0.8 1007.0 10.2
2015-Jun-29 14:10N 54°20' W 152°20'2 0.1 1006.8 10.2
2015-Jun-29 01:10N 54°18' W 152°18'1 1.0 1007.3 10.3
2015-Jun-29 00:10N 54°19' W 152°20'1 1.2 1007.5 10.3
2015-Jun-28 23:10N 54°18' W 152°20'1 0.2 1007.5 10.3
2015-Jun-28 20:10N 54°17' W 152°20'1 0.5 1007.4 10.1
2015-Jun-28 17:10N 54°16' W 152°19'1 0.3 1007.4 10.0
2015-Jun-28 15:10N 54°16' W 152°18'2 0.4 1007.5 10.1
2015-Jun-28 10:10N 54°16' W 152°22'1 0.2 1008.4 10.2
2015-Jun-28 06:10N 54°15' W 152°22'1 0.2 1008.6 10.3
2015-Jun-28 03:10N 54°15' W 152°22'0 0.3 1009.1 10.2
2015-Jun-28 02:10N 54°15' W 152°22'1 0.6 1009.2 10.2
2015-Jun-28 01:10N 54°15' W 152°22'2 0.5 1009.3 10.2
2015-Jun-27 21:10N 54°17' W 152°24'1 0.3 1008.9 10.0
2015-Jun-27 17:10N 54°18' W 152°26'1 1.0 1008.3 10.0
2015-Jun-27 16:10N 54°17' W 152°24'3 0.5 1008.1 10.0
2015-Jun-27 11:10N 54°20' W 152°24'2 0.4 1008.1 10.1
2015-Jun-27 05:10N 54°21' W 152°26'1 0.7 1007.4 10.2
2015-Jun-27 03:10N 54°20' W 152°25'2 0.5 1007.4 10.2
2015-Jun-26 22:10N 54°19' W 152°22'3 0.6 1006.8 10.0
2015-Jun-26 17:10N 54°22' W 152°22'1 0.2 1005.9 9.7
2015-Jun-26 14:10N 54°22' W 152°22'1 0.7 1005.6 9.6
2015-Jun-26 13:10N 54°21' W 152°21'2 1.0 1005.5 9.6
2015-Jun-26 11:10N 54°21' W 152°18'0 0.0 1005.5 9.7
2015-Jun-26 09:10N 54°21' W 152°18'1 0.5 1005.6 9.7
2015-Jun-26 08:10N 54°21' W 152°18'1 0.6 1005.7 9.7
2015-Jun-26 06:10N 54°22' W 152°16'1 0.9 1005.3 9.7
2015-Jun-26 05:10N 54°23' W 152°17'1 0.9 1005.1 9.7
2015-Jun-26 04:10N 54°23' W 152°15'1 0.8 1005.0 9.7
2015-Jun-26 03:10N 54°22' W 152°15'1 0.7 1004.8 9.7
2015-Jun-26 02:10N 54°22' W 152°16'1 1.2 1004.6 9.7
2015-Jun-26 01:10N 54°22' W 152°14'1 1.0 1004.5 9.7
2015-Jun-26 00:10N 54°21' W 152°16'0 0.4 1004.3 9.6
2015-Jun-25 23:10N 54°21' W 152°16'1 0.9 1004.0 9.6
2015-Jun-25 22:10N 54°20' W 152°15'0 0.0 1003.4 9.6
2015-Jun-25 21:10N 54°20' W 152°15'2 1.5 1002.9 9.6
2015-Jun-25 20:10N 54°19' W 152°16'2 2.0 1002.4 9.6
2015-Jun-25 19:10N 54°20' W 152°13'2 1.7 1002.0 9.5
2015-Jun-25 18:10N 54°20' W 152°16'1 0.7 1001.4 9.5
2015-Jun-25 17:10N 54°19' W 152°16'1 0.9 1000.7 9.6
2015-Jun-25 16:10N 54°19' W 152°15'0 0.4 1000.2 9.5
2015-Jun-25 15:10N 54°19' W 152°15'0 0.2 999.8 9.5
2015-Jun-25 14:10N 54°19' W 152°15'1 0.8 999.7 9.5
2015-Jun-25 13:10N 54°20' W 152°16'1 0.6 999.6 9.5
2015-Jun-25 11:10N 54°20' W 152°18'2 0.6 1000.2 9.5
2015-Jun-25 07:10N 54°21' W 152°14'0 0.0 1001.0 9.5
2015-Jun-25 06:10N 54°21' W 152°14'1 0.6 1001.0 9.5
2015-Jun-25 05:10N 54°21' W 152°14'2 0.8 1000.9 9.5
2015-Jun-25 03:10N 54°22' W 152°11'0 0.0 1001.1 9.5
2015-Jun-25 02:10N 54°22' W 152°11'1 0.5 1001.3 9.5
2015-Jun-25 00:10N 54°23' W 152°11'1 1.2 1001.9 9.5
2015-Jun-24 23:10N 54°23' W 152°09'0 0.0 1002.2 9.4
2015-Jun-24 22:10N 54°23' W 152°09'1 1.4 1002.6 9.4
2015-Jun-24 21:10N 54°24' W 152°08'0 0.0 1002.7 9.4
2015-Jun-24 20:10N 54°24' W 152°08'1 0.9 1002.8 9.4
2015-Jun-24 19:10N 54°23' W 152°09'3 1.4 1002.9 9.4
2015-Jun-24 17:10N 54°24' W 152°04'2 0.5 1003.1 9.4
2015-Jun-24 14:10N 54°23' W 152°02'1 0.2 1003.0 9.5
2015-Jun-24 08:10N 54°24' W 152°00'1 0.4 1003.9 9.5
2015-Jun-24 05:10N 54°25' W 151°59'3 1.0 1003.6 9.5
2015-Jun-24 02:10N 54°23' W 151°55'4 0.8 1004.1 9.6
2015-Jun-23 21:10N 54°25' W 151°49'1 1.2 1006.6 9.6
2015-Jun-23 20:10N 54°25' W 151°47'   1007.0 9.6
Track history (hours):
 
Tides and Currents Weather Stations Pressure Air Temp Water Temp Dewpoint Dewpoint Depression Visibility Wind Speed Wind Dir Waves Ship Positions

Drifting buoy 46762

Last reported at 2015-Jul-03 18:10 UTC. Time now 2015-Jul-03 20:21 UTC.
Position N 54°22' W 152°24'.

Barometer 1015.2 mb
Water temperature 10.8 ° C

Date/timePositionNaut miles runAvg speedWind from/ knotsBaromVisibWave heightAir tempDewpointWater temp
2015-Jul-03 18:10N 54°22' W 152°24'2 1.1 1015.2 10.8
2015-Jul-03 16:10N 54°20' W 152°23'0 0.0 1016.7 10.8
2015-Jul-03 15:10N 54°20' W 152°23'2 1.9 1017.5 10.8
2015-Jul-03 14:10N 54°19' W 152°21'1 1.2 1018.0 10.8
2015-Jul-03 13:10N 54°20' W 152°22'4 0.9 1018.6 10.8
2015-Jul-03 08:10N 54°16' W 152°17'2 0.9 1021.6 11.0
2015-Jul-03 06:10N 54°17' W 152°15'1 0.7 1022.3 11.4
2015-Jul-03 04:10N 54°17' W 152°17'1 1.1 1022.9 12.3
2015-Jul-03 03:10N 54°17' W 152°15'1 0.6 1023.1 12.4
2015-Jul-03 02:10N 54°17' W 152°16'0 0.1 1023.4 12.6
2015-Jul-03 01:10N 54°17' W 152°16'1 0.6 1023.7 12.4
2015-Jul-03 00:10N 54°16' W 152°16'1 0.6 1023.8 12.4
2015-Jul-02 23:10N 54°15' W 152°15'1 0.5 1023.9 12.4
2015-Jul-02 22:10N 54°15' W 152°16'1 0.6 1024.0 12.4
2015-Jul-02 20:10N 54°14' W 152°15'1 0.4 1023.8 11.8
2015-Jul-02 18:10N 54°14' W 152°13'1 0.6 1023.5 11.3
2015-Jul-02 16:10N 54°15' W 152°13'0 0.2 1023.1 11.1
2015-Jul-02 15:10N 54°15' W 152°13'1 0.2 1022.7 11.1
2015-Jul-02 11:10N 54°16' W 152°14'0 0.1 1022.4 11.2
2015-Jul-02 08:10N 54°16' W 152°13'1 0.4 1022.3 11.2
2015-Jul-02 05:10N 54°16' W 152°12'2 0.5 1021.2 11.3
2015-Jul-02 01:10N 54°18' W 152°13'2 0.5 1020.8 11.2
2015-Jul-01 21:10N 54°18' W 152°09'2 0.5 1020.0 10.8
2015-Jul-01 17:10N 54°21' W 152°10'1 0.6 1019.2 10.4
2015-Jul-01 15:10N 54°21' W 152°12'1 0.2 1018.6 10.4
2015-Jul-01 12:10N 54°20' W 152°12'1 0.7 1018.3 10.4
2015-Jul-01 10:10N 54°19' W 152°11'1 1.0 1018.7 10.4
2015-Jul-01 09:10N 54°20' W 152°10'2 0.3 1018.6 10.4
2015-Jul-01 04:10N 54°21' W 152°09'1 0.3 1018.2 10.4
2015-Jun-30 23:10N 54°20' W 152°11'0 0.2 1017.9 10.4
2015-Jun-30 22:10N 54°20' W 152°11'1 0.3 1017.7 10.4
2015-Jun-30 18:10N 54°21' W 152°12'0 0.0 1017.1 10.4
2015-Jun-30 12:10N 54°20' W 152°12'0 0.0 1015.2 10.4
2015-Jun-30 11:10N 54°20' W 152°12'0 0.0 1014.8 10.4
2015-Jun-30 09:10N 54°20' W 152°12'1 0.3 1014.3 10.4
2015-Jun-30 04:10N 54°20' W 152°14'1 0.2 1012.1 10.4
2015-Jun-30 00:10N 54°20' W 152°16'1 0.2 1010.7 10.3
2015-Jun-29 16:10N 54°20' W 152°18'1 0.8 1007.3 10.2
2015-Jun-29 15:10N 54°20' W 152°19'1 0.8 1007.0 10.2
2015-Jun-29 14:10N 54°20' W 152°20'2 0.1 1006.8 10.2
2015-Jun-29 01:10N 54°18' W 152°18'1 1.0 1007.3 10.3
2015-Jun-29 00:10N 54°19' W 152°20'1 1.2 1007.5 10.3
2015-Jun-28 23:10N 54°18' W 152°20'1 0.2 1007.5 10.3
2015-Jun-28 20:10N 54°17' W 152°20'1 0.5 1007.4 10.1
2015-Jun-28 17:10N 54°16' W 152°19'1 0.3 1007.4 10.0
2015-Jun-28 15:10N 54°16' W 152°18'2 0.4 1007.5 10.1
2015-Jun-28 10:10N 54°16' W 152°22'1 0.2 1008.4 10.2
2015-Jun-28 06:10N 54°15' W 152°22'1 0.2 1008.6 10.3
2015-Jun-28 03:10N 54°15' W 152°22'0 0.3 1009.1 10.2
2015-Jun-28 02:10N 54°15' W 152°22'1 0.6 1009.2 10.2
2015-Jun-28 01:10N 54°15' W 152°22'2 0.5 1009.3 10.2
2015-Jun-27 21:10N 54°17' W 152°24'1 0.3 1008.9 10.0
2015-Jun-27 17:10N 54°18' W 152°26'1 1.0 1008.3 10.0
2015-Jun-27 16:10N 54°17' W 152°24'3 0.5 1008.1 10.0
2015-Jun-27 11:10N 54°20' W 152°24'2 0.4 1008.1 10.1
2015-Jun-27 05:10N 54°21' W 152°26'1 0.7 1007.4 10.2
2015-Jun-27 03:10N 54°20' W 152°25'2 0.5 1007.4 10.2
2015-Jun-26 22:10N 54°19' W 152°22'3 0.6 1006.8 10.0
2015-Jun-26 17:10N 54°22' W 152°22'1 0.2 1005.9 9.7
2015-Jun-26 14:10N 54°22' W 152°22'1 0.7 1005.6 9.6
2015-Jun-26 13:10N 54°21' W 152°21'2 1.0 1005.5 9.6
2015-Jun-26 11:10N 54°21' W 152°18'0 0.0 1005.5 9.7
2015-Jun-26 09:10N 54°21' W 152°18'1 0.5 1005.6 9.7
2015-Jun-26 08:10N 54°21' W 152°18'1 0.6 1005.7 9.7
2015-Jun-26 06:10N 54°22' W 152°16'1 0.9 1005.3 9.7
2015-Jun-26 05:10N 54°23' W 152°17'1 0.9 1005.1 9.7
2015-Jun-26 04:10N 54°23' W 152°15'1 0.8 1005.0 9.7
2015-Jun-26 03:10N 54°22' W 152°15'1 0.7 1004.8 9.7
2015-Jun-26 02:10N 54°22' W 152°16'1 1.2 1004.6 9.7
2015-Jun-26 01:10N 54°22' W 152°14'1 1.0 1004.5 9.7
2015-Jun-26 00:10N 54°21' W 152°16'0 0.4 1004.3 9.6
2015-Jun-25 23:10N 54°21' W 152°16'1 0.9 1004.0 9.6
2015-Jun-25 22:10N 54°20' W 152°15'0 0.0 1003.4 9.6
2015-Jun-25 21:10N 54°20' W 152°15'2 1.5 1002.9 9.6
2015-Jun-25 20:10N 54°19' W 152°16'2 2.0 1002.4 9.6
2015-Jun-25 19:10N 54°20' W 152°13'2 1.7 1002.0 9.5
2015-Jun-25 18:10N 54°20' W 152°16'1 0.7 1001.4 9.5
2015-Jun-25 17:10N 54°19' W 152°16'1 0.9 1000.7 9.6
2015-Jun-25 16:10N 54°19' W 152°15'0 0.4 1000.2 9.5
2015-Jun-25 15:10N 54°19' W 152°15'0 0.2 999.8 9.5
2015-Jun-25 14:10N 54°19' W 152°15'1 0.8 999.7 9.5
2015-Jun-25 13:10N 54°20' W 152°16'1 0.6 999.6 9.5
2015-Jun-25 11:10N 54°20' W 152°18'2 0.6 1000.2 9.5
2015-Jun-25 07:10N 54°21' W 152°14'0 0.0 1001.0 9.5
2015-Jun-25 06:10N 54°21' W 152°14'1 0.6 1001.0 9.5
2015-Jun-25 05:10N 54°21' W 152°14'2 0.8 1000.9 9.5
2015-Jun-25 03:10N 54°22' W 152°11'0 0.0 1001.1 9.5
2015-Jun-25 02:10N 54°22' W 152°11'1 0.5 1001.3 9.5
2015-Jun-25 00:10N 54°23' W 152°11'1 1.2 1001.9 9.5
2015-Jun-24 23:10N 54°23' W 152°09'0 0.0 1002.2 9.4
2015-Jun-24 22:10N 54°23' W 152°09'1 1.4 1002.6 9.4
2015-Jun-24 21:10N 54°24' W 152°08'0 0.0 1002.7 9.4
2015-Jun-24 20:10N 54°24' W 152°08'1 0.9 1002.8 9.4
2015-Jun-24 19:10N 54°23' W 152°09'3 1.4 1002.9 9.4
2015-Jun-24 17:10N 54°24' W 152°04'2 0.5 1003.1 9.4
2015-Jun-24 14:10N 54°23' W 152°02'1 0.2 1003.0 9.5
2015-Jun-24 08:10N 54°24' W 152°00'1 0.4 1003.9 9.5
2015-Jun-24 05:10N 54°25' W 151°59'3 1.0 1003.6 9.5
2015-Jun-24 02:10N 54°23' W 151°55'4 0.8 1004.1 9.6
2015-Jun-23 21:10N 54°25' W 151°49'1 1.2 1006.6 9.6
2015-Jun-23 20:10N 54°25' W 151°47'   1007.0 9.6

Dump ship's entire track history